Hayden, CO

4:28 PM MST en Diciembre 19, 2014 (GMT -0700)
HAYDEN, COLORADO (DOWN TOWN) | Change Station
CLOSE
Current Station
Estación meteorológica personal
Location: Hayden, CO
Altura: 6352 ft
Estaciones meteorológicas cercanas

Alt 6352 ft 40.50 °N, 107.25 °W | Updated 1 second ago

Clear
Despejado
21.7 ° F
Sensación térmica 22 ° F
N
2.1
Viento Variable Viento desde SSE
Gusts 3.0 mph

Hoy
Alta -- | Baja -- ° F
--% Posibilidad de precipitaciones
Ayer
Alta -- | Baja -- ° F
Precip. -- pul
7:27 AM 4:44 PM
Creciente menguante, 5% visible
Presión 30.18 pul
Visibilidad 10.0 Millas
Nubes Despejado
Vientos helados 22 ° F
Punto de rocío 18 ° F
Humedad 83%
Precipitaciones 0.02 pul
Espesor de la nieve No disponible.
UV 0 de una escala de 12
Polen .10 de una escala de 12
Calidad del aire No disponible.
Flu Activity No disponible.
METAR KHDN 192315Z AUTO 19004KT 10SM CLR M06/M09 A3018 RMK AO1

More Conditions Fewer Conditions

Presión 30.18 pul
Visibilidad 10.0 Millas
Nubes Despejado
Vientos helados 22 ° F
Punto de rocío 18 ° F
Humedad 83%
Precipitaciones 0.02 pul
Espesor de la nieve No disponible.
UV 0 de una escala de 12
Polen .10 de una escala de 12
Calidad del aire No disponible.
Flu Activity No disponible.
METAR KHDN 192315Z AUTO 19004KT 10SM CLR M06/M09 A3018 RMK AO1

More Conditions Fewer Conditions

10-Day Weather Forecast

Almanac

Astronomía

Dec. 19, 2014 Salida Puesta
Hora real
Crepúsculo civil
Crepúsculo náutico
Crepúsculo astronómico
Luna
Horas de luz
Horas de luz
Tomorrow will be .
, % of the Moon is Illuminated

Extremos de hoy

Máximos del estado Bajos del estado

Community

WunderPhotos

Upload Photos

1,779,073 ¡fotos cargadas!

WunderBlogs® & News

Nearby

Calidad del aire

  Calidad del aire Índice AQ Contaminante
Not available.

Grosos de nieve

Estación Profundido Altura

Actividad de terremotos

Ciudad Distance Mag. Tiempo y dato
Magnitud mínima muestra es 2,5.

Temperaturas de aguas costeras

Lugar Temperatura

Estaciones meteorológicas cercanas